sensor_id;sensor_type;location;lat;lon;timestamp;P1;durP1;ratioP1;P2;durP2;ratioP2
34902;SDS011;21114;44.840;0.214;2022-07-01T06:56:50;1.05;;;0.55;;
34902;SDS011;21114;44.840;0.214;2022-07-01T06:59:16;3.30;;;1.17;;
34902;SDS011;21114;44.840;0.214;2022-07-01T07:01:42;2.83;;;1.42;;
34902;SDS011;21114;44.840;0.214;2022-07-01T07:04:08;1.70;;;1.30;;
34902;SDS011;21114;44.840;0.214;2022-07-01T07:06:35;2.70;;;1.70;;
34902;SDS011;21114;44.840;0.214;2022-07-01T07:09:01;2.28;;;1.40;;
34902;SDS011;21114;44.840;0.214;2022-07-01T07:11:27;1.70;;;1.33;;
34902;SDS011;21114;44.840;0.214;2022-07-01T07:13:53;1.95;;;1.38;;
34902;SDS011;21114;44.840;0.214;2022-07-01T07:16:19;2.35;;;1.10;;
34902;SDS011;21114;44.840;0.214;2022-07-01T07:18:46;2.13;;;1.95;;
34902;SDS011;21114;44.840;0.214;2022-07-01T07:21:12;2.33;;;1.90;;
34902;SDS011;21114;44.840;0.214;2022-07-01T07:23:38;1.85;;;1.10;;
34902;SDS011;21114;44.840;0.214;2022-07-01T07:26:06;3.42;;;1.73;;
34902;SDS011;21114;44.840;0.214;2022-07-01T07:28:32;1.95;;;1.40;;
34902;SDS011;21114;44.840;0.214;2022-07-01T07:30:58;2.00;;;1.52;;
34902;SDS011;21114;44.840;0.214;2022-07-01T07:33:24;2.67;;;1.52;;
34902;SDS011;21114;44.840;0.214;2022-07-01T07:35:50;3.70;;;1.80;;
34902;SDS011;21114;44.840;0.214;2022-07-01T07:38:17;4.50;;;2.05;;
34902;SDS011;21114;44.840;0.214;2022-07-01T07:40:45;2.55;;;2.35;;
34902;SDS011;21114;44.840;0.214;2022-07-01T07:43:11;2.63;;;2.00;;
34902;SDS011;21114;44.840;0.214;2022-07-01T07:45:38;5.05;;;2.42;;
34902;SDS011;21114;44.840;0.214;2022-07-01T07:48:04;3.42;;;1.98;;
34902;SDS011;21114;44.840;0.214;2022-07-01T07:50:31;1.63;;;1.10;;
34902;SDS011;21114;44.840;0.214;2022-07-01T07:52:58;1.38;;;1.10;;
34902;SDS011;21114;44.840;0.214;2022-07-01T07:55:24;2.90;;;1.05;;
34902;SDS011;21114;44.840;0.214;2022-07-01T07:57:50;0.70;;;0.50;;
34902;SDS011;21114;44.840;0.214;2022-07-01T08:00:17;1.00;;;0.80;;
34902;SDS011;21114;44.840;0.214;2022-07-01T08:02:43;0.60;;;0.57;;
34902;SDS011;21114;44.840;0.214;2022-07-01T08:05:09;1.52;;;0.93;;
34902;SDS011;21114;44.840;0.214;2022-07-01T08:07:36;1.40;;;1.08;;
34902;SDS011;21114;44.840;0.214;2022-07-01T08:10:05;1.30;;;1.00;;
34902;SDS011;21114;44.840;0.214;2022-07-01T08:12:31;1.58;;;1.15;;
34902;SDS011;21114;44.840;0.214;2022-07-01T08:14:57;6.95;;;2.53;;
34902;SDS011;21114;44.840;0.214;2022-07-01T08:17:24;1.27;;;0.85;;
34902;SDS011;21114;44.840;0.214;2022-07-01T08:19:50;2.50;;;1.38;;
34902;SDS011;21114;44.840;0.214;2022-07-01T08:22:16;2.28;;;2.05;;
34902;SDS011;21114;44.840;0.214;2022-07-01T08:24:42;2.88;;;0.93;;
34902;SDS011;21114;44.840;0.214;2022-07-01T08:27:08;1.75;;;0.98;;
34902;SDS011;21114;44.840;0.214;2022-07-01T08:29:35;1.67;;;0.82;;
34902;SDS011;21114;44.840;0.214;2022-07-01T08:32:01;2.40;;;0.82;;
34902;SDS011;21114;44.840;0.214;2022-07-01T08:34:27;1.98;;;1.08;;
34902;SDS011;21114;44.840;0.214;2022-07-01T08:37:07;1.30;;;0.90;;
34902;SDS011;21114;44.840;0.214;2022-07-01T11:02:31;1.50;;;0.38;;
34902;SDS011;21114;44.840;0.214;2022-07-01T11:04:59;4.20;;;0.40;;
34902;SDS011;21114;44.840;0.214;2022-07-01T11:07:28;0.35;;;0.25;;
34902;SDS011;21114;44.840;0.214;2022-07-01T11:09:55;0.52;;;0.20;;
34902;SDS011;21114;44.840;0.214;2022-07-01T11:12:22;1.80;;;0.50;;
34902;SDS011;21114;44.840;0.214;2022-07-01T11:14:48;0.45;;;0.25;;
34902;SDS011;21114;44.840;0.214;2022-07-01T11:17:15;2.15;;;0.77;;
34902;SDS011;21114;44.840;0.214;2022-07-01T11:19:47;0.28;;;0.20;;
34902;SDS011;21114;44.840;0.214;2022-07-01T11:22:18;1.30;;;0.30;;
34902;SDS011;21114;44.840;0.214;2022-07-01T11:24:44;2.25;;;0.40;;
34902;SDS011;21114;44.840;0.214;2022-07-01T11:27:20;0.90;;;0.50;;
34902;SDS011;21114;44.840;0.214;2022-07-01T11:29:52;1.25;;;0.40;;
34902;SDS011;21114;44.840;0.214;2022-07-01T11:35:24;1.27;;;0.20;;
34902;SDS011;21114;44.840;0.214;2022-07-01T11:38:22;0.90;;;0.35;;
34902;SDS011;21114;44.840;0.214;2022-07-01T11:51:53;0.95;;;0.32;;
34902;SDS011;21114;44.840;0.214;2022-07-01T11:54:20;1.67;;;0.52;;
34902;SDS011;21114;44.840;0.214;2022-07-01T11:56:47;0.63;;;0.22;;
34902;SDS011;21114;44.840;0.214;2022-07-01T11:59:13;1.33;;;0.85;;
34902;SDS011;21114;44.840;0.214;2022-07-01T12:01:40;1.40;;;0.50;;
34902;SDS011;21114;44.840;0.214;2022-07-01T12:04:07;1.17;;;0.40;;
34902;SDS011;21114;44.840;0.214;2022-07-01T12:06:34;10.27;;;1.58;;
34902;SDS011;21114;44.840;0.214;2022-07-01T12:09:01;0.55;;;0.20;;
34902;SDS011;21114;44.840;0.214;2022-07-01T12:11:28;0.30;;;0.20;;
34902;SDS011;21114;44.840;0.214;2022-07-01T12:13:54;0.93;;;0.40;;
34902;SDS011;21114;44.840;0.214;2022-07-01T12:16:22;0.95;;;0.40;;
34902;SDS011;21114;44.840;0.214;2022-07-01T12:18:51;1.55;;;0.40;;
34902;SDS011;21114;44.840;0.214;2022-07-01T12:21:17;1.15;;;0.30;;
34902;SDS011;21114;44.840;0.214;2022-07-01T12:26:31;0.63;;;0.28;;
34902;SDS011;21114;44.840;0.214;2022-07-01T12:28:57;0.73;;;0.30;;
34902;SDS011;21114;44.840;0.214;2022-07-01T12:31:23;1.58;;;0.82;;
34902;SDS011;21114;44.840;0.214;2022-07-01T12:33:51;4.15;;;1.10;;
34902;SDS011;21114;44.840;0.214;2022-07-01T12:36:17;1.33;;;0.50;;
34902;SDS011;21114;44.840;0.214;2022-07-01T12:38:43;1.48;;;0.35;;
34902;SDS011;21114;44.840;0.214;2022-07-01T12:43:56;1.35;;;0.25;;
34902;SDS011;21114;44.840;0.214;2022-07-01T12:46:30;0.40;;;0.40;;
34902;SDS011;21114;44.840;0.214;2022-07-01T12:48:56;0.70;;;0.20;;
34902;SDS011;21114;44.840;0.214;2022-07-01T12:51:31;1.55;;;0.45;;
34902;SDS011;21114;44.840;0.214;2022-07-01T12:53:57;2.83;;;0.63;;
34902;SDS011;21114;44.840;0.214;2022-07-01T12:56:25;1.55;;;0.70;;
34902;SDS011;21114;44.840;0.214;2022-07-01T12:58:52;5.63;;;1.30;;
34902;SDS011;21114;44.840;0.214;2022-07-01T13:01:19;1.35;;;0.25;;
34902;SDS011;21114;44.840;0.214;2022-07-01T13:03:46;0.95;;;0.30;;
34902;SDS011;21114;44.840;0.214;2022-07-01T13:06:12;0.77;;;0.70;;
34902;SDS011;21114;44.840;0.214;2022-07-01T13:08:38;1.45;;;0.30;;
34902;SDS011;21114;44.840;0.214;2022-07-01T13:11:04;1.25;;;0.30;;
34902;SDS011;21114;44.840;0.214;2022-07-01T13:13:31;0.82;;;0.28;;
34902;SDS011;21114;44.840;0.214;2022-07-01T13:15:57;2.53;;;0.52;;
34902;SDS011;21114;44.840;0.214;2022-07-01T13:18:23;1.45;;;0.68;;
34902;SDS011;21114;44.840;0.214;2022-07-01T13:20:50;0.68;;;0.30;;
34902;SDS011;21114;44.840;0.214;2022-07-01T13:23:16;0.32;;;0.20;;
34902;SDS011;21114;44.840;0.214;2022-07-01T13:25:42;0.50;;;0.25;;
34902;SDS011;21114;44.840;0.214;2022-07-01T13:28:08;1.42;;;0.50;;
34902;SDS011;21114;44.840;0.214;2022-07-01T13:30:34;0.75;;;0.57;;
34902;SDS011;21114;44.840;0.214;2022-07-01T13:33:01;0.90;;;0.80;;
34902;SDS011;21114;44.840;0.214;2022-07-01T13:35:27;1.33;;;0.40;;
34902;SDS011;21114;44.840;0.214;2022-07-01T13:37:54;0.88;;;0.25;;
34902;SDS011;21114;44.840;0.214;2022-07-01T13:40:20;0.75;;;0.30;;
34902;SDS011;21114;44.840;0.214;2022-07-01T13:42:47;0.80;;;0.40;;
34902;SDS011;21114;44.840;0.214;2022-07-01T17:39:45;0.45;;;0.30;;
34902;SDS011;21114;44.840;0.214;2022-07-01T17:42:12;1.23;;;0.85;;
34902;SDS011;21114;44.840;0.214;2022-07-01T17:44:38;1.60;;;0.47;;
34902;SDS011;21114;44.840;0.214;2022-07-01T17:47:05;2.88;;;0.50;;
34902;SDS011;21114;44.840;0.214;2022-07-01T17:49:32;1.85;;;1.10;;
34902;SDS011;21114;44.840;0.214;2022-07-01T17:51:58;1.35;;;0.30;;
34902;SDS011;21114;44.840;0.214;2022-07-01T17:54:28;1.45;;;0.20;;
34902;SDS011;21114;44.840;0.214;2022-07-01T17:56:55;2.75;;;0.40;;
34902;SDS011;21114;44.840;0.214;2022-07-01T17:59:22;0.60;;;0.22;;
34902;SDS011;21114;44.840;0.214;2022-07-01T18:01:49;0.85;;;0.40;;
34902;SDS011;21114;44.840;0.214;2022-07-01T18:04:16;1.52;;;0.35;;
34902;SDS011;21114;44.840;0.214;2022-07-01T18:06:43;0.20;;;0.13;;
34902;SDS011;21114;44.840;0.214;2022-07-01T18:09:11;1.00;;;0.28;;
